Time;durP1;ratioP1;P1;durP2;ratioP2;P2;SDS_P1;SDS_P2;PMS_P1;PMS_P2;Temp;Humidity;BMP_temperature;BMP_pressure;BME280_temperature;BME280_humidity;BME280_pressure;Samples;Min_cycle;Max_cycle;Signal;HPM_P1;HPM_P2
2023/10/14 00:02:23;;;;;;;132.90;54.63;;;;;;;;;;10468442;28;20070;-80
2023/10/14 00:07:26;;;;;;;44.75;20.67;;;;;;;;;;10496500;22;20059;-80
2023/10/14 00:12:28;;;;;;;34.78;17.15;;;;;;;;;;10512186;28;20037;-80
2023/10/14 00:17:34;;;;;;;28.83;15.57;;;;;;;;;;10486578;28;20025;-80
2023/10/14 00:22:39;;;;;;;28.33;14.65;;;;;;;;;;10487037;28;20032;-79
2023/10/14 00:27:40;;;;;;;27.67;15.55;;;;;;;;;;10497240;28;20478;-80
2023/10/14 00:32:41;;;;;;;23.23;13.07;;;;;;;;;;10486431;28;20495;-79
2023/10/14 00:37:42;;;;;;;27.55;15.02;;;;;;;;;;10485827;28;20111;-81
2023/10/14 00:42:44;;;;;;;21.80;11.88;;;;;;;;;;10472239;28;20029;-80
2023/10/14 00:47:46;;;;;;;43.03;18.75;;;;;;;;;;10485621;28;20088;-80
2023/10/14 00:52:55;;;;;;;25.63;13.93;;;;;;;;;;10485851;28;20036;-80
2023/10/14 00:57:56;;;;;;;40.28;18.20;;;;;;;;;;10485950;28;20020;-81
2023/10/14 01:02:57;;;;;;;44.42;21.42;;;;;;;;;;10485153;28;20039;-80
2023/10/14 01:07:59;;;;;;;44.63;17.65;;;;;;;;;;10483923;28;20071;-81
2023/10/14 01:13:06;;;;;;;30.75;14.15;;;;;;;;;;10484485;28;20043;-80
2023/10/14 01:18:07;;;;;;;25.95;13.35;;;;;;;;;;10484454;28;20032;-80
2023/10/14 01:23:14;;;;;;;22.60;12.02;;;;;;;;;;10485362;28;20037;-81
2023/10/14 01:28:20;;;;;;;80.25;30.23;;;;;;;;;;10484291;28;20036;-81
2023/10/14 01:33:25;;;;;;;31.65;15.60;;;;;;;;;;10484898;28;20068;-80
2023/10/14 01:38:27;;;;;;;57.07;24.37;;;;;;;;;;10484357;28;20146;-81
2023/10/14 01:43:31;;;;;;;26.33;14.35;;;;;;;;;;10484704;28;20016;-80
2023/10/14 01:48:32;;;;;;;55.65;23.73;;;;;;;;;;10484058;28;20078;-80
2023/10/14 01:53:39;;;;;;;29.20;14.57;;;;;;;;;;10486243;28;20028;-81
2023/10/14 01:58:41;;;;;;;22.15;13.10;;;;;;;;;;10492235;28;20086;-79
2023/10/14 02:03:54;;;;;;;23.02;11.45;;;;;;;;;;10492129;28;20036;-80
2023/10/14 02:08:57;;;;;;;21.00;12.00;;;;;;;;;;10490406;28;20670;-80
2023/10/14 02:13:59;;;;;;;27.35;12.38;;;;;;;;;;10492289;28;20039;-80
2023/10/14 02:19:20;;;;;;;86.68;32.97;;;;;;;;;;10491259;28;20607;-80
2023/10/14 02:24:21;;;;;;;44.22;19.30;;;;;;;;;;10473229;28;20039;-79
2023/10/14 02:29:24;;;;;;;31.50;15.38;;;;;;;;;;10491819;28;20392;-79
2023/10/14 02:34:25;;;;;;;31.27;14.73;;;;;;;;;;10490357;28;20041;-80
2023/10/14 02:39:26;;;;;;;31.00;14.65;;;;;;;;;;10490653;28;20040;-81
2023/10/14 02:44:28;;;;;;;23.60;11.40;;;;;;;;;;10490533;28;20024;-80
2023/10/14 02:49:35;;;;;;;21.42;9.90;;;;;;;;;;10490489;28;20112;-79
2023/10/14 02:54:36;;;;;;;21.15;9.82;;;;;;;;;;10477914;28;20595;-80
2023/10/14 02:59:44;;;;;;;14.80;7.45;;;;;;;;;;10489613;28;20469;-80
2023/10/14 03:04:55;;;;;;;18.85;9.13;;;;;;;;;;10478012;28;20043;-80
2023/10/14 03:10:10;;;;;;;18.75;7.40;;;;;;;;;;10488203;28;20632;-79
2023/10/14 03:15:20;;;;;;;56.45;19.75;;;;;;;;;;10490145;28;20071;-80
2023/10/14 03:25:29;;;;;;;16.33;8.27;;;;;;;;;;10489943;28;20032;-80
2023/10/14 03:30:31;;;;;;;19.85;8.30;;;;;;;;;;10489465;28;20035;-79
2023/10/14 03:35:32;;;;;;;17.85;8.68;;;;;;;;;;10489979;28;20028;-81
2023/10/14 03:40:52;;;;;;;16.50;8.98;;;;;;;;;;10489224;28;20051;-81
2023/10/14 03:45:57;;;;;;;16.30;8.20;;;;;;;;;;10488940;28;20430;-80
2023/10/14 03:51:03;;;;;;;15.82;8.70;;;;;;;;;;10488745;28;20480;-80
2023/10/14 03:56:04;;;;;;;19.63;8.95;;;;;;;;;;10480496;28;20032;-79
2023/10/14 04:01:05;;;;;;;15.23;8.05;;;;;;;;;;10475433;28;20060;-80
2023/10/14 04:06:08;;;;;;;19.88;9.75;;;;;;;;;;10487236;28;20103;-79
2023/10/14 04:11:15;;;;;;;16.77;9.32;;;;;;;;;;10470074;28;20081;-79
2023/10/14 04:16:18;;;;;;;19.95;9.10;;;;;;;;;;10485973;28;20024;-80
2023/10/14 04:21:26;;;;;;;18.63;9.68;;;;;;;;;;10486697;28;20078;-79
2023/10/14 04:26:31;;;;;;;19.23;9.88;;;;;;;;;;10486915;28;20032;-80
2023/10/14 04:31:41;;;;;;;17.33;9.73;;;;;;;;;;10485965;28;20044;-80
2023/10/14 04:36:53;;;;;;;18.60;9.90;;;;;;;;;;10486392;28;20021;-80
2023/10/14 04:42:22;;;;;;;20.30;10.70;;;;;;;;;;10485661;28;20483;-81
2023/10/14 04:47:35;;;;;;;15.07;9.57;;;;;;;;;;10485258;28;20380;-80
2023/10/14 04:52:38;;;;;;;22.10;10.90;;;;;;;;;;10485256;28;20162;-80
2023/10/14 04:57:40;;;;;;;20.13;10.90;;;;;;;;;;10485375;28;20032;-79
2023/10/14 05:02:41;;;;;;;18.67;10.82;;;;;;;;;;10485681;28;20034;-80
2023/10/14 05:07:42;;;;;;;20.85;11.90;;;;;;;;;;10483819;28;20064;-80
2023/10/14 05:12:51;;;;;;;28.33;15.82;;;;;;;;;;10484339;28;20546;-80
2023/10/14 05:17:53;;;;;;;33.30;17.48;;;;;;;;;;10484240;28;20037;-79
2023/10/14 05:22:56;;;;;;;37.17;20.35;;;;;;;;;;10484634;28;20029;-80
2023/10/14 05:27:58;;;;;;;63.33;37.08;;;;;;;;;;10484132;28;20017;-80
2023/10/14 05:33:08;;;;;;;43.90;24.80;;;;;;;;;;10484725;28;20071;-79
2023/10/14 05:38:10;;;;;;;37.95;19.90;;;;;;;;;;10484111;28;20016;-80
2023/10/14 05:43:11;;;;;;;43.25;24.40;;;;;;;;;;10484371;28;20555;-79
2023/10/14 05:48:12;;;;;;;45.90;25.17;;;;;;;;;;10484080;28;20036;-80
2023/10/14 05:53:16;;;;;;;42.05;22.40;;;;;;;;;;10479086;28;20119;-78
2023/10/14 05:58:17;;;;;;;43.47;23.02;;;;;;;;;;10484059;28;20025;-80
2023/10/14 06:03:19;;;;;;;48.97;25.30;;;;;;;;;;10484061;28;20067;-80
2023/10/14 06:08:20;;;;;;;38.40;22.25;;;;;;;;;;10482503;28;20139;-80
2023/10/14 06:13:21;;;;;;;45.22;24.58;;;;;;;;;;10483214;28;20136;-80
2023/10/14 06:18:22;;;;;;;36.42;19.73;;;;;;;;;;10484119;28;20056;-79
2023/10/14 06:23:26;;;;;;;39.85;20.27;;;;;;;;;;10483339;28;20029;-79
2023/10/14 06:28:28;;;;;;;38.13;19.58;;;;;;;;;;10483807;28;20047;-81
2023/10/14 06:33:29;;;;;;;38.20;20.30;;;;;;;;;;10483596;28;20044;-81
2023/10/14 06:38:33;;;;;;;33.08;18.58;;;;;;;;;;10482911;28;20396;-80
2023/10/14 06:43:34;;;;;;;31.52;17.13;;;;;;;;;;10489841;28;20020;-81
2023/10/14 06:48:38;;;;;;;29.83;17.10;;;;;;;;;;10490141;28;20032;-80
2023/10/14 06:53:39;;;;;;;29.67;15.50;;;;;;;;;;10490347;28;20032;-80
2023/10/14 06:58:42;;;;;;;25.38;15.48;;;;;;;;;;10490245;28;20479;-80
2023/10/14 07:03:43;;;;;;;26.52;15.85;;;;;;;;;;10490394;28;20086;-80
2023/10/14 07:08:48;;;;;;;26.52;14.60;;;;;;;;;;10488492;28;20126;-82
2023/10/14 07:13:49;;;;;;;30.13;15.65;;;;;;;;;;10489368;28;20097;-79
2023/10/14 07:18:50;;;;;;;23.00;13.60;;;;;;;;;;10490334;28;20066;-81
2023/10/14 07:24:05;;;;;;;22.95;14.20;;;;;;;;;;10470288;28;20091;-79
2023/10/14 07:29:06;;;;;;;22.23;13.13;;;;;;;;;;10487985;28;20039;-80
2023/10/14 07:34:10;;;;;;;27.38;13.13;;;;;;;;;;10489168;28;20040;-79
2023/10/14 07:39:30;;;;;;;22.27;13.40;;;;;;;;;;10488391;28;20020;-79
2023/10/14 07:44:31;;;;;;;25.40;12.57;;;;;;;;;;10475343;28;20044;-79
2023/10/14 07:49:33;;;;;;;22.58;12.20;;;;;;;;;;10487604;28;20036;-80
2023/10/14 07:54:37;;;;;;;21.70;11.40;;;;;;;;;;10487320;28;20029;-80
2023/10/14 07:59:38;;;;;;;19.80;11.20;;;;;;;;;;10487859;28;20107;-80
2023/10/14 08:04:45;;;;;;;19.77;10.90;;;;;;;;;;10487867;28;20025;-81
2023/10/14 08:09:48;;;;;;;18.33;10.82;;;;;;;;;;10485434;28;20093;-80
2023/10/14 08:14:52;;;;;;;23.08;11.23;;;;;;;;;;10486666;28;20447;-85
2023/10/14 08:19:54;;;;;;;28.65;17.45;;;;;;;;;;10487091;28;20028;-87
2023/10/14 08:24:55;;;;;;;17.23;10.48;;;;;;;;;;10486549;28;20032;-81
2023/10/14 08:29:56;;;;;;;19.52;10.70;;;;;;;;;;10486264;28;20028;-82
2023/10/14 08:34:57;;;;;;;21.25;10.70;;;;;;;;;;10486019;28;20074;-81
2023/10/14 08:39:58;;;;;;;15.65;9.80;;;;;;;;;;10486223;28;20736;-81
2023/10/14 08:45:00;;;;;;;19.38;10.55;;;;;;;;;;10485902;28;20040;-81
2023/10/14 08:50:02;;;;;;;15.63;8.48;;;;;;;;;;10484810;28;20090;-81
2023/10/14 08:55:03;;;;;;;18.65;9.27;;;;;;;;;;10486382;28;20045;-80
2023/10/14 09:00:05;;;;;;;15.80;8.38;;;;;;;;;;10486244;28;20032;-84
2023/10/14 09:05:11;;;;;;;22.80;11.05;;;;;;;;;;10485885;28;20033;-81
2023/10/14 09:10:15;;;;;;;20.85;9.10;;;;;;;;;;10473992;28;20075;-81
2023/10/14 09:15:20;;;;;;;16.10;8.83;;;;;;;;;;10467664;28;20487;-82
2023/10/14 09:20:29;;;;;;;18.48;9.27;;;;;;;;;;10470481;28;20033;-81
2023/10/14 09:25:30;;;;;;;13.95;8.63;;;;;;;;;;10461864;28;20576;-81
2023/10/14 09:30:31;;;;;;;16.95;8.60;;;;;;;;;;10469659;28;20101;-81
2023/10/14 09:35:33;;;;;;;19.52;9.15;;;;;;;;;;10478950;28;20029;-81
2023/10/14 09:40:34;;;;;;;16.55;8.98;;;;;;;;;;10474313;28;20073;-82
2023/10/14 09:45:35;;;;;;;16.08;9.10;;;;;;;;;;10457822;28;20155;-82
2023/10/14 09:50:37;;;;;;;13.18;8.73;;;;;;;;;;10463784;28;20033;-82
2023/10/14 09:55:38;;;;;;;14.07;8.52;;;;;;;;;;10470748;28;20465;-81
2023/10/14 10:00:40;;;;;;;15.32;8.85;;;;;;;;;;10472132;28;20661;-81
2023/10/14 10:05:53;;;;;;;15.52;8.60;;;;;;;;;;10478082;28;20488;-81
2023/10/14 10:10:55;;;;;;;14.27;7.88;;;;;;;;;;10467658;28;20056;-81
2023/10/14 10:16:05;;;;;;;14.00;8.05;;;;;;;;;;10451885;28;20033;-82
2023/10/14 10:21:06;;;;;;;12.32;7.82;;;;;;;;;;10480493;28;20028;-84
2023/10/14 10:26:09;;;;;;;15.32;8.68;;;;;;;;;;10477127;28;20032;-82
2023/10/14 10:31:20;;;;;;;15.02;9.15;;;;;;;;;;10477634;28;20546;-80
2023/10/14 10:36:24;;;;;;;13.02;8.88;;;;;;;;;;10475668;28;20068;-81
2023/10/14 10:41:26;;;;;;;15.07;7.75;;;;;;;;;;10474596;28;20028;-81
2023/10/14 10:46:31;;;;;;;18.40;8.93;;;;;;;;;;10473049;28;20480;-80
2023/10/14 10:51:32;;;;;;;14.98;8.05;;;;;;;;;;10475078;28;20403;-83
2023/10/14 10:56:34;;;;;;;16.38;8.70;;;;;;;;;;10481242;28;20025;-82
2023/10/14 11:01:35;;;;;;;23.38;10.07;;;;;;;;;;10479418;28;20036;-81
2023/10/14 11:06:36;;;;;;;18.40;8.77;;;;;;;;;;10475666;28;20032;-82
2023/10/14 11:11:37;;;;;;;12.95;8.13;;;;;;;;;;10479459;28;20053;-82
2023/10/14 11:16:44;;;;;;;16.40;8.07;;;;;;;;;;10475549;28;20028;-82
2023/10/14 11:21:45;;;;;;;16.90;8.23;;;;;;;;;;10470673;28;20936;-82
2023/10/14 11:26:47;;;;;;;15.50;7.85;;;;;;;;;;10490729;22;20767;-81
2023/10/14 11:31:54;;;;;;;15.57;8.27;;;;;;;;;;10480048;28;20033;-82
2023/10/14 11:36:55;;;;;;;11.45;7.40;;;;;;;;;;10483610;28;20430;-83
2023/10/14 11:42:01;;;;;;;13.98;7.57;;;;;;;;;;10477220;28;20031;-81
2023/10/14 11:47:07;;;;;;;13.75;7.10;;;;;;;;;;10474486;28;20032;-82
2023/10/14 11:52:08;;;;;;;10.57;6.47;;;;;;;;;;10485625;28;20537;-82
2023/10/14 11:57:11;;;;;;;17.38;6.97;;;;;;;;;;10479734;28;20039;-81
2023/10/14 12:02:12;;;;;;;13.77;7.75;;;;;;;;;;10453282;28;20588;-82
2023/10/14 12:07:16;;;;;;;14.52;7.32;;;;;;;;;;10471146;28;20032;-83
2023/10/14 12:12:17;;;;;;;13.88;7.55;;;;;;;;;;10467641;28;20128;-84
2023/10/14 12:17:18;;;;;;;17.23;8.25;;;;;;;;;;10481972;28;20067;-81
2023/10/14 12:22:20;;;;;;;12.88;8.18;;;;;;;;;;10482761;28;20017;-83
2023/10/14 12:27:25;;;;;;;13.88;8.02;;;;;;;;;;10477774;28;20143;-81
2023/10/14 12:32:32;;;;;;;16.30;9.15;;;;;;;;;;10478554;28;20036;-83
2023/10/14 12:37:33;;;;;;;17.92;9.68;;;;;;;;;;10482541;28;20464;-82
2023/10/14 12:42:47;;;;;;;17.58;10.10;;;;;;;;;;10486596;28;20024;-82
2023/10/14 12:47:48;;;;;;;18.70;9.50;;;;;;;;;;10486307;28;20028;-81
2023/10/14 12:52:59;;;;;;;19.80;9.30;;;;;;;;;;10469757;28;20067;-81
2023/10/14 13:03:38;;;;;;;22.92;9.98;;;;;;;;;;10471469;28;20739;-81
2023/10/14 13:08:39;;;;;;;16.10;9.80;;;;;;;;;;10466124;28;20021;-81
2023/10/14 13:13:40;;;;;;;16.85;9.35;;;;;;;;;;10483511;28;20711;-81
2023/10/14 13:18:41;;;;;;;70.80;31.65;;;;;;;;;;10475079;28;20037;-81
2023/10/14 13:30:08;;;;;;;27.75;14.93;;;;;;;;;;10428881;28;20632;-81
2023/10/14 13:35:16;;;;;;;24.55;12.65;;;;;;;;;;10405925;28;20036;-81
2023/10/14 13:40:21;;;;;;;34.20;18.73;;;;;;;;;;10439919;28;20037;-82
2023/10/14 13:45:22;;;;;;;29.33;16.55;;;;;;;;;;10435202;28;20025;-81
2023/10/14 13:50:23;;;;;;;19.83;11.80;;;;;;;;;;10443825;28;20037;-81
2023/10/14 14:01:11;;;;;;;16.83;9.40;;;;;;;;;;10442186;28;20575;-81
2023/10/14 14:06:12;;;;;;;21.40;10.60;;;;;;;;;;10450292;28;20032;-82
2023/10/14 14:11:13;;;;;;;16.50;9.45;;;;;;;;;;10451478;28;20029;-81
2023/10/14 14:16:14;;;;;;;25.23;9.82;;;;;;;;;;10451427;28;20036;-81
2023/10/14 14:21:16;;;;;;;17.08;9.15;;;;;;;;;;10450663;28;20120;-81
2023/10/14 14:26:18;;;;;;;18.83;9.63;;;;;;;;;;10457172;28;20106;-80
2023/10/14 14:31:20;;;;;;;13.95;8.70;;;;;;;;;;10490732;28;20036;-81
2023/10/14 14:36:22;;;;;;;17.83;9.48;;;;;;;;;;10492279;28;20035;-82
2023/10/14 14:41:25;;;;;;;17.50;8.63;;;;;;;;;;10490892;28;20074;-82
2023/10/14 14:46:27;;;;;;;14.30;9.65;;;;;;;;;;10491543;28;20636;-81
2023/10/14 14:51:47;;;;;;;21.35;11.05;;;;;;;;;;10490733;28;20080;-81
2023/10/14 14:56:48;;;;;;;17.92;10.48;;;;;;;;;;10471560;28;20112;-81
2023/10/14 15:01:49;;;;;;;18.30;9.98;;;;;;;;;;10490250;28;20028;-81
2023/10/14 15:06:50;;;;;;;21.98;11.85;;;;;;;;;;10490649;28;20024;-81
2023/10/14 15:11:56;;;;;;;24.02;13.60;;;;;;;;;;10489944;28;20706;-81
2023/10/14 15:16:57;;;;;;;16.50;6.45;;;;;;;;;;10470912;28;20401;-80
2023/10/14 15:27:37;;;;;;;6.43;3.88;;;;;;;;;;10488044;28;20431;-81
2023/10/14 15:32:42;;;;;;;6.40;4.30;;;;;;;;;;10488490;28;20048;-80
2023/10/14 15:37:45;;;;;;;10.95;5.55;;;;;;;;;;10488893;28;20056;-80
2023/10/14 15:42:46;;;;;;;7.95;4.72;;;;;;;;;;10489010;28;20889;-80
2023/10/14 15:47:48;;;;;;;8.82;5.30;;;;;;;;;;10489083;28;20028;-81
2023/10/14 15:52:49;;;;;;;7.03;3.78;;;;;;;;;;10487927;28;20049;-80
2023/10/14 15:57:51;;;;;;;5.38;3.20;;;;;;;;;;10469990;28;20040;-80
2023/10/14 16:02:53;;;;;;;5.30;2.90;;;;;;;;;;10487516;28;20103;-80
2023/10/14 16:08:03;;;;;;;5.55;3.97;;;;;;;;;;10488033;28;20085;-79
2023/10/14 16:13:05;;;;;;;4.97;2.53;;;;;;;;;;10468694;28;20036;-81
2023/10/14 16:18:08;;;;;;;4.30;3.05;;;;;;;;;;10460514;28;20024;-80
2023/10/14 16:23:09;;;;;;;5.25;3.28;;;;;;;;;;10456369;28;20103;-81
2023/10/14 16:28:10;;;;;;;8.13;4.10;;;;;;;;;;10458736;28;20044;-80
2023/10/14 16:33:11;;;;;;;6.57;3.05;;;;;;;;;;10485615;28;20136;-82
2023/10/14 16:38:12;;;;;;;5.80;3.33;;;;;;;;;;10483952;28;20036;-81
2023/10/14 16:43:13;;;;;;;6.68;3.92;;;;;;;;;;10479692;28;20032;-80
2023/10/14 16:48:15;;;;;;;4.18;2.65;;;;;;;;;;10473254;28;20399;-81
2023/10/14 16:53:16;;;;;;;5.43;2.67;;;;;;;;;;10478070;28;20456;-81
2023/10/14 16:58:18;;;;;;;5.28;2.50;;;;;;;;;;10475185;28;20048;-81
2023/10/14 17:03:22;;;;;;;5.85;2.20;;;;;;;;;;10480188;28;20037;-81
2023/10/14 17:08:25;;;;;;;3.72;1.70;;;;;;;;;;10479901;28;20020;-81
2023/10/14 17:13:26;;;;;;;4.40;2.10;;;;;;;;;;10465775;28;20361;-80
2023/10/14 17:18:27;;;;;;;8.07;2.80;;;;;;;;;;10476076;28;20020;-81
2023/10/14 17:23:28;;;;;;;8.60;2.95;;;;;;;;;;10474391;28;20025;-80
2023/10/14 17:28:29;;;;;;;9.02;3.50;;;;;;;;;;10437844;28;20061;-80
2023/10/14 17:33:32;;;;;;;5.35;3.30;;;;;;;;;;10407168;28;20057;-80
2023/10/14 17:38:33;;;;;;;11.13;4.18;;;;;;;;;;10431558;28;20040;-81
2023/10/14 17:43:34;;;;;;;8.45;3.58;;;;;;;;;;10428569;28;20417;-81
2023/10/14 17:48:35;;;;;;;5.07;3.28;;;;;;;;;;10430205;28;20128;-80
2023/10/14 17:53:36;;;;;;;8.20;4.03;;;;;;;;;;10426679;28;20145;-81
2023/10/14 17:58:37;;;;;;;9.07;3.42;;;;;;;;;;10438171;28;20056;-80
2023/10/14 18:03:39;;;;;;;6.75;3.75;;;;;;;;;;10397841;23;20577;-81
2023/10/14 18:08:40;;;;;;;6.13;3.30;;;;;;;;;;10376049;28;20045;-81
2023/10/14 18:13:42;;;;;;;5.28;2.95;;;;;;;;;;10370266;28;20048;-80
2023/10/14 18:18:44;;;;;;;6.88;3.42;;;;;;;;;;10378926;28;20381;-81
2023/10/14 18:23:46;;;;;;;5.32;3.03;;;;;;;;;;10368585;28;20061;-80
2023/10/14 18:28:47;;;;;;;5.97;2.58;;;;;;;;;;10392601;22;20068;-81
2023/10/14 18:33:50;;;;;;;4.93;3.00;;;;;;;;;;10372436;28;20053;-80
2023/10/14 18:38:52;;;;;;;6.95;3.78;;;;;;;;;;10369722;28;20196;-81
2023/10/14 18:43:54;;;;;;;11.55;4.45;;;;;;;;;;10378342;28;20049;-81
2023/10/14 18:48:56;;;;;;;11.05;4.18;;;;;;;;;;10389760;28;20065;-80
2023/10/14 18:53:59;;;;;;;13.73;7.75;;;;;;;;;;10371401;28;20164;-81
2023/10/14 18:59:02;;;;;;;21.08;11.18;;;;;;;;;;10388826;28;20733;-81
2023/10/14 19:04:06;;;;;;;36.10;21.38;;;;;;;;;;10375809;28;20524;-80
2023/10/14 19:09:08;;;;;;;38.15;20.42;;;;;;;;;;10393765;28;20442;-81
2023/10/14 19:14:09;;;;;;;25.50;14.20;;;;;;;;;;10388958;28;20132;-80
2023/10/14 19:19:11;;;;;;;55.75;32.92;;;;;;;;;;10385382;28;20435;-79
2023/10/14 19:24:13;;;;;;;38.38;24.65;;;;;;;;;;10370731;28;20502;-81
2023/10/14 19:29:14;;;;;;;20.95;13.38;;;;;;;;;;10387763;28;20457;-81
2023/10/14 19:34:15;;;;;;;47.28;27.10;;;;;;;;;;10373155;28;20048;-81
2023/10/14 19:39:16;;;;;;;46.55;26.98;;;;;;;;;;10397250;28;20150;-80
2023/10/14 19:44:17;;;;;;;40.72;23.95;;;;;;;;;;10380396;28;20034;-80
2023/10/14 19:49:25;;;;;;;35.85;21.90;;;;;;;;;;10386624;28;20556;-81
2023/10/14 19:54:40;;;;;;;35.85;21.20;;;;;;;;;;10374732;28;20076;-81
2023/10/14 19:59:42;;;;;;;45.00;24.93;;;;;;;;;;10378210;28;20060;-80
2023/10/14 20:04:43;;;;;;;73.43;39.42;;;;;;;;;;10388688;28;20037;-81
2023/10/14 20:09:45;;;;;;;44.30;26.73;;;;;;;;;;10381432;28;20064;-81
2023/10/14 20:14:46;;;;;;;44.55;26.15;;;;;;;;;;10382022;28;20409;-79
2023/10/14 20:19:48;;;;;;;52.65;30.13;;;;;;;;;;10380010;28;20038;-81
2023/10/14 20:24:51;;;;;;;47.53;25.42;;;;;;;;;;10375504;28;20034;-82
2023/10/14 20:29:53;;;;;;;24.45;14.13;;;;;;;;;;10342457;28;20070;-81
2023/10/14 20:34:54;;;;;;;29.33;13.95;;;;;;;;;;10312633;28;20052;-80
2023/10/14 20:39:55;;;;;;;23.10;13.75;;;;;;;;;;10324492;28;20714;-81
2023/10/14 20:44:56;;;;;;;22.60;12.95;;;;;;;;;;10342776;28;20037;-83
2023/10/14 20:49:57;;;;;;;20.38;11.90;;;;;;;;;;10327306;28;20084;-81
2023/10/14 20:54:59;;;;;;;32.53;15.55;;;;;;;;;;10335524;28;20377;-80
2023/10/14 21:00:00;;;;;;;41.17;19.65;;;;;;;;;;10343374;28;20398;-81
2023/10/14 21:05:01;;;;;;;19.95;12.23;;;;;;;;;;10333116;28;20038;-81
2023/10/14 21:10:02;;;;;;;24.08;14.00;;;;;;;;;;10346185;28;20034;-81
2023/10/14 21:15:03;;;;;;;24.05;13.27;;;;;;;;;;10340131;28;20045;-81
2023/10/14 21:20:08;;;;;;;21.88;12.27;;;;;;;;;;10330586;28;20092;-81
2023/10/14 21:25:09;;;;;;;25.85;15.98;;;;;;;;;;10329564;28;20038;-80
2023/10/14 21:30:14;;;;;;;27.45;16.70;;;;;;;;;;10366110;28;20100;-80
2023/10/14 21:35:15;;;;;;;22.65;13.55;;;;;;;;;;10380580;28;20039;-80
2023/10/14 21:40:19;;;;;;;33.78;16.85;;;;;;;;;;10387438;28;20064;-81
2023/10/14 21:45:22;;;;;;;27.45;15.65;;;;;;;;;;10382439;28;20025;-80
2023/10/14 21:50:27;;;;;;;26.90;14.77;;;;;;;;;;10383587;28;20030;-80
2023/10/14 21:55:29;;;;;;;26.90;15.50;;;;;;;;;;10350922;28;20533;-80
2023/10/14 22:00:40;;;;;;;26.05;15.35;;;;;;;;;;10383979;28;20080;-81
2023/10/14 22:05:53;;;;;;;25.42;13.13;;;;;;;;;;10391183;28;20041;-80
2023/10/14 22:10:54;;;;;;;25.48;13.75;;;;;;;;;;10397275;28;20044;-80
2023/10/14 22:15:56;;;;;;;21.27;13.50;;;;;;;;;;10388506;28;20068;-81
2023/10/14 22:21:00;;;;;;;18.95;12.27;;;;;;;;;;10409093;28;20149;-79
2023/10/14 22:26:01;;;;;;;20.35;11.82;;;;;;;;;;10379715;28;20448;-79
2023/10/14 22:31:05;;;;;;;20.00;10.88;;;;;;;;;;10360015;28;20064;-79
2023/10/14 22:36:07;;;;;;;19.30;10.45;;;;;;;;;;10370267;28;20508;-80
2023/10/14 22:41:09;;;;;;;17.98;9.63;;;;;;;;;;10378935;28;20060;-81
2023/10/14 22:46:11;;;;;;;18.58;10.63;;;;;;;;;;10387551;28;20041;-79
2023/10/14 22:51:12;;;;;;;17.42;9.52;;;;;;;;;;10365992;28;20028;-80
2023/10/14 22:56:13;;;;;;;15.93;8.02;;;;;;;;;;10405162;22;20091;-81
2023/10/14 23:01:15;;;;;;;16.83;7.68;;;;;;;;;;10465739;28;20066;-81
2023/10/14 23:06:22;;;;;;;18.85;6.65;;;;;;;;;;10486489;28;20041;-81
2023/10/14 23:11:23;;;;;;;14.60;5.97;;;;;;;;;;10490273;28;20439;-80
2023/10/14 23:16:25;;;;;;;15.43;5.57;;;;;;;;;;10489567;28;20036;-79
2023/10/14 23:21:26;;;;;;;12.85;5.57;;;;;;;;;;10485135;28;20041;-80
2023/10/14 23:26:27;;;;;;;14.38;4.78;;;;;;;;;;10483667;28;20025;-81
2023/10/14 23:31:36;;;;;;;12.50;6.22;;;;;;;;;;10466278;28;20029;-80
2023/10/14 23:36:37;;;;;;;21.13;7.95;;;;;;;;;;10418233;28;20060;-80
2023/10/14 23:41:38;;;;;;;17.67;5.55;;;;;;;;;;10441325;28;20021;-81
2023/10/14 23:46:39;;;;;;;13.98;5.90;;;;;;;;;;10458201;22;20420;-79
2023/10/14 23:51:40;;;;;;;11.60;5.95;;;;;;;;;;10446171;28;20047;-81
2023/10/14 23:56:41;;;;;;;15.82;6.07;;;;;;;;;;10446693;28;20041;-81
